createdAt,value
2023-01-23T00:01:54.613Z,4.35
2023-01-23T00:06:16.571Z,4.36
2023-01-23T00:10:32.889Z,4.62
2023-01-23T00:14:49.096Z,4.62
2023-01-23T00:19:05.362Z,4.73
2023-01-23T00:23:21.637Z,4.54
2023-01-23T00:27:37.992Z,4.48
2023-01-23T00:31:54.161Z,4.43
2023-01-23T00:36:10.840Z,4.53
2023-01-23T00:40:27.254Z,4.39
2023-01-23T00:44:43.452Z,4.31
2023-01-23T00:48:59.606Z,4.32
2023-01-23T00:53:15.973Z,4.45
2023-01-23T00:57:32.136Z,4.51
2023-01-23T01:01:48.350Z,4.31
2023-01-23T01:06:05.000Z,4.13
2023-01-23T01:10:21.631Z,4.30
2023-01-23T01:14:37.967Z,4.03
2023-01-23T01:18:54.175Z,4.07
2023-01-23T01:23:10.956Z,4.23
2023-01-23T01:27:28.395Z,4.21
2023-01-23T01:31:44.778Z,4.30
2023-01-23T01:36:01.723Z,3.27
2023-01-23T01:40:24.084Z,4.01
2023-01-23T01:44:59.379Z,4.13
2023-01-23T01:49:24.327Z,4.16
2023-01-23T01:53:40.976Z,4.27
2023-01-23T01:57:57.187Z,4.11
2023-01-23T02:02:34.690Z,4.10
2023-01-23T02:06:52.597Z,4.21
2023-01-23T02:11:08.961Z,4.16
2023-01-23T02:15:25.136Z,4.28
2023-01-23T02:19:52.987Z,4.26
2023-01-23T02:24:12.234Z,4.18
2023-01-23T02:28:46.932Z,3.96
2023-01-23T02:33:21.290Z,3.97
2023-01-23T02:37:38.353Z,4.01
2023-01-23T02:41:56.362Z,4.27
2023-01-23T02:46:12.803Z,4.28
2023-01-23T02:50:29.699Z,4.08
2023-01-23T02:54:46.714Z,3.94
2023-01-23T02:59:21.511Z,4.04
2023-01-23T03:03:37.685Z,3.87
2023-01-23T03:07:53.945Z,3.78
2023-01-23T03:12:10.564Z,3.65
2023-01-23T03:16:26.834Z,3.65
2023-01-23T03:20:43.090Z,3.70
2023-01-23T03:24:59.607Z,3.72
2023-01-23T03:29:42.550Z,3.63
2023-01-23T03:33:58.751Z,3.73
2023-01-23T03:38:18.134Z,3.91
2023-01-23T03:42:35.533Z,3.86
2023-01-23T03:46:52.768Z,3.89
2023-01-23T03:51:09.043Z,3.78
2023-01-23T03:55:25.245Z,3.80
2023-01-23T03:59:41.377Z,3.71
2023-01-23T04:03:57.557Z,3.71
2023-01-23T04:08:13.875Z,4.04
2023-01-23T04:12:30.058Z,4.04
2023-01-23T04:16:46.483Z,4.28
2023-01-23T04:21:02.696Z,4.29
2023-01-23T04:25:18.892Z,4.43
2023-01-23T04:29:35.118Z,4.54
2023-01-23T04:33:51.330Z,4.73
2023-01-23T04:38:07.524Z,4.79
2023-01-23T04:42:23.708Z,4.88
2023-01-23T04:46:40.109Z,4.84
2023-01-23T04:50:56.371Z,4.84
2023-01-23T04:55:12.606Z,5.16
2023-01-23T04:59:28.773Z,4.94
2023-01-23T05:03:44.929Z,5.20
2023-01-23T05:08:01.107Z,5.04
2023-01-23T05:12:17.269Z,5.15
2023-01-23T05:16:33.382Z,5.18
2023-01-23T05:20:49.686Z,5.40
2023-01-23T05:25:06.399Z,5.16
2023-01-23T05:29:22.645Z,5.26
2023-01-23T05:33:40.508Z,5.48
2023-01-23T05:37:56.757Z,5.47
2023-01-23T05:42:13.029Z,5.46
2023-01-23T05:46:29.256Z,5.47
2023-01-23T05:50:45.501Z,5.53
2023-01-23T05:55:01.711Z,5.58
2023-01-23T05:59:18.012Z,5.86
2023-01-23T06:03:34.788Z,5.86
2023-01-23T06:07:50.914Z,5.81
2023-01-23T06:12:07.528Z,5.72
2023-01-23T06:16:23.639Z,5.71
2023-01-23T06:20:39.823Z,5.60
2023-01-23T06:24:56.006Z,5.93
2023-01-23T06:29:12.467Z,5.95
2023-01-23T06:33:28.649Z,5.97
2023-01-23T06:37:45.183Z,6.03
2023-01-23T06:42:01.692Z,6.15
2023-01-23T06:46:18.013Z,6.11
2023-01-23T06:50:34.159Z,6.11
2023-01-23T06:54:50.378Z,6.19
2023-01-23T06:59:08.642Z,6.19
2023-01-23T07:03:25.337Z,6.41
2023-01-23T07:07:41.518Z,6.16
2023-01-23T07:11:57.986Z,6.45
2023-01-23T07:16:14.283Z,6.41
2023-01-23T07:20:30.476Z,6.31
2023-01-23T07:24:47.891Z,6.43
2023-01-23T07:29:06.344Z,6.53
2023-01-23T07:33:22.697Z,6.66
2023-01-23T07:37:40.860Z,6.85
2023-01-23T07:41:57.121Z,6.95
2023-01-23T07:46:13.445Z,6.87
2023-01-23T07:50:32.649Z,6.91
2023-01-23T07:54:48.874Z,6.92
2023-01-23T07:59:05.043Z,6.96
2023-01-23T08:03:21.362Z,7.28
2023-01-23T08:07:37.534Z,7.74
2023-01-23T08:11:53.908Z,7.93
2023-01-23T08:16:12.695Z,8.12
2023-01-23T08:20:29.901Z,8.40
2023-01-23T08:24:46.391Z,8.52
2023-01-23T08:29:02.795Z,8.74
2023-01-23T08:33:20.024Z,9.17
2023-01-23T08:37:37.141Z,9.30
2023-01-23T08:41:53.364Z,9.19
2023-01-23T08:46:10.237Z,9.56
2023-01-23T08:50:28.561Z,9.56
2023-01-23T08:54:44.703Z,9.67
2023-01-23T08:59:00.830Z,9.93
2023-01-23T09:03:16.950Z,10.18
2023-01-23T09:07:36.688Z,10.28
2023-01-23T09:11:54.018Z,10.48
2023-01-23T09:16:10.454Z,10.50
2023-01-23T09:20:26.935Z,10.48
2023-01-23T09:24:43.044Z,10.68
2023-01-23T09:28:59.190Z,11.18
2023-01-23T09:33:17.083Z,11.33
2023-01-23T09:37:58.502Z,11.51
2023-01-23T09:42:32.305Z,11.34
2023-01-23T09:46:48.282Z,11.36
2023-01-23T09:51:36.735Z,11.40
2023-01-23T09:56:05.664Z,11.69
2023-01-23T10:00:30.231Z,11.82
2023-01-23T10:04:50.932Z,11.75
2023-01-23T10:09:29.272Z,12.19
2023-01-23T10:14:03.732Z,12.15
2023-01-23T10:18:31.620Z,11.87
2023-01-23T10:23:06.159Z,11.94
2023-01-23T10:27:44.634Z,12.06
2023-01-23T10:32:04.560Z,12.05
2023-01-23T10:36:26.227Z,12.37
2023-01-23T10:41:02.454Z,12.48
2023-01-23T10:45:23.139Z,12.66
2023-01-23T10:49:44.006Z,12.68
2023-01-23T10:54:25.965Z,12.41
2023-01-23T10:58:51.611Z,12.63
2023-01-23T11:03:25.132Z,13.07
2023-01-23T11:07:43.369Z,13.99
2023-01-23T11:12:05.143Z,13.90
2023-01-23T11:16:26.631Z,14.43
2023-01-23T11:20:52.965Z,14.07
2023-01-23T11:25:49.410Z,14.84
2023-01-23T11:30:36.492Z,15.01
2023-01-23T11:35:01.153Z,15.23
2023-01-23T11:39:49.875Z,15.42
2023-01-23T11:44:16.802Z,15.44
2023-01-23T11:48:37.808Z,16.15
2023-01-23T11:53:21.195Z,16.03
2023-01-23T11:57:58.708Z,16.29
2023-01-23T12:02:22.411Z,16.62
2023-01-23T12:07:09.011Z,16.19
2023-01-23T12:11:27.592Z,15.79
2023-01-23T12:15:58.607Z,16.32
2023-01-23T12:20:25.753Z,15.75
2023-01-23T12:24:55.999Z,16.18
2023-01-23T12:29:47.440Z,16.35
2023-01-23T12:34:44.924Z,16.39
2023-01-23T12:39:39.828Z,16.75
2023-01-23T12:44:14.834Z,17.04
2023-01-23T12:48:35.204Z,17.49
2023-01-23T12:52:55.420Z,17.07
2023-01-23T12:57:12.703Z,16.50
2023-01-23T13:02:06.421Z,17.15
2023-01-23T13:06:45.964Z,16.84
2023-01-23T13:11:40.916Z,17.39
2023-01-23T13:16:30.546Z,17.19
2023-01-23T13:21:20.756Z,17.58
2023-01-23T13:25:38.380Z,17.84
2023-01-23T13:29:55.753Z,17.73
2023-01-23T13:34:18.063Z,17.79
2023-01-23T13:38:39.716Z,18.08
2023-01-23T13:42:55.908Z,18.16
2023-01-23T14:20:43.477Z,21.67
2023-01-23T14:24:59.707Z,19.69
2023-01-23T14:29:22.582Z,18.60
2023-01-23T14:33:43.980Z,17.78
2023-01-23T14:38:02.955Z,17.51
2023-01-23T14:42:33.224Z,16.95
2023-01-23T14:46:56.247Z,16.52
2023-01-23T14:51:20.491Z,16.11
2023-01-23T14:55:42.591Z,15.78
2023-01-23T14:59:59.610Z,15.29
2023-01-23T15:04:23.736Z,14.93
2023-01-23T15:08:40.641Z,14.44
2023-01-23T15:13:02.695Z,14.15
2023-01-23T15:17:20.965Z,13.95
2023-01-23T15:21:40.048Z,13.80
2023-01-23T15:26:14.980Z,13.56
2023-01-23T15:30:40.714Z,13.32
2023-01-23T15:34:59.300Z,13.03
2023-01-23T15:39:24.522Z,12.82
2023-01-23T15:43:40.667Z,12.55
2023-01-23T15:47:56.852Z,12.75
2023-01-23T15:52:21.091Z,12.52
2023-01-23T15:56:37.736Z,12.31
2023-01-23T16:00:54.004Z,12.15
2023-01-23T16:05:10.493Z,12.11
2023-01-23T16:09:31.633Z,11.91
2023-01-23T16:13:48.321Z,11.79
2023-01-23T16:18:05.533Z,11.71
2023-01-23T16:22:30.481Z,11.80
2023-01-23T16:26:48.550Z,11.59
2023-01-23T16:31:08.943Z,11.62
2023-01-23T16:35:25.850Z,11.73
2023-01-23T16:39:48.097Z,11.58
2023-01-23T16:44:04.821Z,11.42
2023-01-23T16:48:27.238Z,11.43
2023-01-23T16:52:51.005Z,11.44
2023-01-23T16:57:09.607Z,11.27
2023-01-23T17:01:27.150Z,11.08
2023-01-23T17:05:43.397Z,11.15
2023-01-23T17:09:59.670Z,10.93
2023-01-23T17:14:27.089Z,11.12
2023-01-23T17:18:43.427Z,10.95
2023-01-23T17:23:01.189Z,10.86
2023-01-23T17:27:18.166Z,10.82
2023-01-23T17:31:34.807Z,10.80
2023-01-23T17:35:51.986Z,10.73
2023-01-23T17:40:12.994Z,10.75
2023-01-23T17:44:29.307Z,10.52
2023-01-23T17:48:45.977Z,10.57
2023-01-23T17:53:02.402Z,10.53
2023-01-23T17:57:18.632Z,10.73
2023-01-23T18:01:34.947Z,10.45
2023-01-23T18:05:51.251Z,10.37
2023-01-23T18:10:11.415Z,10.28
2023-01-23T18:14:52.978Z,10.42
2023-01-23T18:19:25.483Z,10.23
2023-01-23T18:23:42.296Z,10.48
2023-01-23T18:28:02.203Z,10.28
2023-01-23T18:32:49.758Z,10.16
2023-01-23T18:37:22.287Z,10.19
2023-01-23T18:41:43.614Z,10.31
2023-01-23T18:46:00.037Z,10.40
2023-01-23T18:50:20.418Z,10.40
2023-01-23T18:55:02.257Z,10.42
2023-01-23T18:59:38.617Z,10.01
2023-01-23T19:03:55.362Z,9.98
2023-01-23T19:08:32.859Z,9.81
2023-01-23T19:13:01.224Z,9.84
2023-01-23T19:17:37.198Z,9.91
2023-01-23T19:21:53.462Z,9.81
2023-01-23T19:26:19.182Z,9.93
2023-01-23T19:30:37.230Z,9.77
2023-01-23T19:34:56.413Z,9.85
2023-01-23T19:39:12.796Z,9.56
2023-01-23T19:43:29.007Z,9.83
2023-01-23T19:47:45.767Z,9.74
2023-01-23T19:52:02.423Z,9.70
2023-01-23T19:56:18.876Z,9.43
2023-01-23T20:00:38.905Z,9.45
2023-01-23T20:04:57.884Z,9.47
2023-01-23T20:09:17.681Z,9.50
2023-01-23T20:13:33.912Z,9.55
2023-01-23T20:17:50.393Z,9.53
2023-01-23T20:22:06.685Z,9.52
2023-01-23T20:26:23.180Z,9.31
2023-01-23T20:30:40.101Z,9.54
2023-01-23T20:34:56.313Z,9.63
2023-01-23T20:39:13.808Z,9.44
2023-01-23T20:43:30.034Z,9.24
2023-01-23T20:47:46.478Z,8.99
2023-01-23T20:52:21.609Z,9.39
2023-01-23T20:56:37.880Z,9.32
2023-01-23T21:00:54.115Z,9.39
2023-01-23T21:05:11.049Z,9.45
2023-01-23T21:09:28.127Z,9.46
2023-01-23T21:13:49.861Z,9.19
2023-01-23T21:18:06.165Z,9.35
2023-01-23T21:22:22.297Z,9.28
2023-01-23T21:26:39.095Z,9.24
2023-01-23T21:30:55.865Z,9.32
2023-01-23T21:35:12.163Z,9.52
2023-01-23T21:39:28.356Z,9.46
2023-01-23T21:43:44.543Z,9.42
2023-01-23T21:48:00.644Z,9.37
2023-01-23T21:52:16.771Z,9.34
2023-01-23T21:56:32.957Z,9.42
2023-01-23T22:01:07.670Z,9.61
2023-01-23T22:05:23.997Z,9.49
2023-01-23T22:09:40.165Z,9.39
2023-01-23T22:13:56.931Z,9.54
2023-01-23T22:18:13.132Z,9.42
2023-01-23T22:22:29.293Z,9.43
2023-01-23T22:26:45.481Z,9.46
2023-01-23T22:31:11.163Z,9.27
2023-01-23T22:35:27.373Z,9.34
2023-01-23T22:39:44.284Z,9.52
2023-01-23T22:44:00.558Z,9.43
2023-01-23T22:48:16.797Z,9.47
2023-01-23T22:52:34.077Z,9.32
2023-01-23T22:56:50.280Z,9.28
2023-01-23T23:01:07.069Z,9.22
2023-01-23T23:05:23.611Z,9.40
2023-01-23T23:09:39.867Z,9.39
2023-01-23T23:13:57.919Z,9.54
2023-01-23T23:18:14.091Z,9.15
2023-01-23T23:22:30.316Z,9.13
2023-01-23T23:26:46.629Z,9.07
2023-01-23T23:31:02.847Z,9.03
2023-01-23T23:35:19.387Z,9.02
2023-01-23T23:39:35.642Z,9.13
2023-01-23T23:43:51.960Z,9.11
2023-01-23T23:48:08.257Z,9.11
2023-01-23T23:52:24.477Z,9.26
2023-01-23T23:56:40.733Z,9.30
